createdAt,value
2018-03-06T00:08:50.854Z,30.80
2018-03-06T00:18:59.067Z,30.10
2018-03-06T00:29:11.324Z,30.60
2018-03-06T00:39:21.340Z,30.70
2018-03-06T00:49:32.572Z,31.20
2018-03-06T00:59:44.922Z,31.40
2018-03-06T01:09:58.104Z,31.20
2018-03-06T01:20:08.374Z,30.70
2018-03-06T01:30:17.777Z,30.60
2018-03-06T01:40:26.449Z,31.00
2018-03-06T01:50:39.261Z,31.00
2018-03-06T02:00:49.880Z,30.20
2018-03-06T02:10:59.672Z,30.50
2018-03-06T02:21:10.542Z,30.50
2018-03-06T02:31:20.266Z,31.10
2018-03-06T02:41:31.176Z,30.50
2018-03-06T02:51:40.398Z,30.50
2018-03-06T03:01:48.998Z,29.80
2018-03-06T03:12:00.503Z,29.90
2018-03-06T03:22:09.820Z,28.60
2018-03-06T03:32:21.862Z,28.20
2018-03-06T03:42:34.863Z,28.80
2018-03-06T03:52:44.450Z,28.30
2018-03-06T04:02:54.451Z,28.30
2018-03-06T04:13:08.502Z,33.70
2018-03-06T04:23:21.116Z,33.60
2018-03-06T04:33:33.807Z,33.40
2018-03-06T04:43:46.279Z,33.30
2018-03-06T04:53:54.865Z,33.30
2018-03-06T05:04:05.120Z,32.20
2018-03-06T05:14:16.907Z,35.60
2018-03-06T05:24:26.318Z,33.90
2018-03-06T05:34:36.292Z,34.40
2018-03-06T05:44:46.527Z,32.40
2018-03-06T05:54:59.396Z,30.50
2018-03-06T06:05:14.814Z,30.40
2018-03-06T06:15:25.833Z,29.60
2018-03-06T06:25:37.371Z,29.60
2018-03-06T06:35:47.137Z,28.70
2018-03-06T06:46:06.420Z,28.70
2018-03-06T06:56:17.083Z,29.00
2018-03-06T07:06:26.150Z,28.90
2018-03-06T07:16:36.842Z,28.70
2018-03-06T07:26:46.422Z,28.70
2018-03-06T07:36:58.518Z,29.30
2018-03-06T07:47:06.919Z,29.60
2018-03-06T07:57:15.766Z,27.70
2018-03-06T08:07:24.295Z,27.80
2018-03-06T08:17:35.012Z,26.70
2018-03-06T08:27:46.090Z,26.70
2018-03-06T08:37:58.272Z,27.20
2018-03-06T08:48:15.217Z,27.10
2018-03-06T08:58:24.335Z,27.00
2018-03-06T09:08:33.251Z,27.30
2018-03-06T09:18:42.241Z,27.30
2018-03-06T09:28:51.198Z,27.50
2018-03-06T09:39:00.943Z,27.20
2018-03-06T09:49:14.215Z,27.30
2018-03-06T09:59:28.616Z,25.00
2018-03-06T10:09:36.686Z,26.50
2018-03-06T10:19:50.699Z,27.30
2018-03-06T10:30:07.071Z,28.20
2018-03-06T10:40:18.540Z,28.80
2018-03-06T10:50:32.272Z,28.80
2018-03-06T11:00:46.377Z,29.40
2018-03-06T11:11:00.288Z,30.00
2018-03-06T11:21:10.807Z,30.30
2018-03-06T11:31:20.531Z,30.30
2018-03-06T11:41:29.348Z,30.60
2018-03-06T11:51:37.433Z,30.90
2018-03-06T12:01:47.080Z,31.10
2018-03-06T12:11:55.445Z,31.10
2018-03-06T12:22:05.312Z,31.60
2018-03-06T12:32:17.660Z,31.60
2018-03-06T12:42:28.050Z,31.90
2018-03-06T12:52:37.109Z,32.00
2018-03-06T13:02:50.822Z,32.10
2018-03-06T13:13:00.654Z,32.20
2018-03-06T13:23:12.379Z,32.40
2018-03-06T13:33:22.317Z,32.40
2018-03-06T13:43:33.606Z,32.30
2018-03-06T13:53:44.447Z,32.30
2018-03-06T14:03:53.586Z,32.40
2018-03-06T14:14:04.150Z,32.60
2018-03-06T14:24:17.604Z,32.60
2018-03-06T14:34:28.331Z,32.50
2018-03-06T14:44:37.537Z,32.30
2018-03-06T14:54:47.840Z,32.30
2018-03-06T15:04:57.390Z,32.30
2018-03-06T15:15:09.305Z,32.10
2018-03-06T15:25:18.935Z,32.10
2018-03-06T15:35:28.907Z,31.90
2018-03-06T15:45:37.884Z,31.90
2018-03-06T15:55:47.382Z,32.00
2018-03-06T16:06:03.303Z,31.90
2018-03-06T16:16:13.431Z,32.00
2018-03-06T16:26:23.331Z,32.00
2018-03-06T16:36:34.389Z,32.00
2018-03-06T16:46:44.118Z,32.00
2018-03-06T16:56:54.845Z,31.80
2018-03-06T17:07:03.330Z,31.80
2018-03-06T17:17:11.832Z,31.40
2018-03-06T17:27:20.632Z,31.70
2018-03-06T17:37:30.918Z,32.70
2018-03-06T17:47:42.751Z,32.60
2018-03-06T17:57:52.896Z,32.90
2018-03-06T18:08:02.080Z,32.90
2018-03-06T18:18:12.089Z,33.00
2018-03-06T18:28:21.779Z,32.90
2018-03-06T18:38:32.027Z,32.80
2018-03-06T18:48:40.627Z,32.80
2018-03-06T18:58:48.798Z,32.70
2018-03-06T19:08:56.974Z,32.60
2018-03-06T19:19:06.597Z,32.60
2018-03-06T19:29:15.276Z,32.50
2018-03-06T19:39:24.969Z,32.40
2018-03-06T19:49:34.689Z,32.40
2018-03-06T19:59:43.195Z,32.40
2018-03-06T20:09:53.059Z,32.40
2018-03-06T20:20:03.240Z,32.40
2018-03-06T20:30:12.299Z,32.00
2018-03-06T20:40:26.716Z,32.00
2018-03-06T20:50:35.064Z,31.60
2018-03-06T21:00:45.578Z,31.40
2018-03-06T21:10:53.539Z,31.30
2018-03-06T21:21:02.183Z,31.10
2018-03-06T21:31:11.833Z,31.00
2018-03-06T21:41:22.381Z,30.90
2018-03-06T21:51:32.898Z,31.30
2018-03-06T22:01:41.153Z,31.30
2018-03-06T22:11:50.593Z,32.00
2018-03-06T22:22:01.055Z,32.00
2018-03-06T22:32:09.735Z,32.00
2018-03-06T22:42:19.406Z,31.80
2018-03-06T22:52:27.166Z,32.50
2018-03-06T23:02:35.775Z,32.10
2018-03-06T23:12:45.631Z,32.10
2018-03-06T23:22:54.595Z,31.70
2018-03-06T23:33:03.040Z,31.50
2018-03-06T23:43:15.031Z,31.30
2018-03-06T23:53:23.576Z,31.00
